sensor_id;sensor_type;location;lat;lon;timestamp;P1;durP1;ratioP1;P2;durP2;ratioP2
51636;SDS011;37713;53.254;6.460;2023-09-08T00:01:49;14.57;;;10.75;;
51636;SDS011;37713;53.254;6.460;2023-09-08T00:04:15;14.05;;;10.18;;
51636;SDS011;37713;53.254;6.460;2023-09-08T00:06:41;13.52;;;10.82;;
51636;SDS011;37713;53.254;6.460;2023-09-08T00:09:07;17.48;;;10.25;;
51636;SDS011;37713;53.254;6.460;2023-09-08T00:11:33;17.23;;;10.25;;
51636;SDS011;37713;53.254;6.460;2023-09-08T00:13:59;14.32;;;10.23;;
51636;SDS011;37713;53.254;6.460;2023-09-08T00:16:25;13.15;;;9.32;;
51636;SDS011;37713;53.254;6.460;2023-09-08T00:18:54;13.63;;;9.97;;
51636;SDS011;37713;53.254;6.460;2023-09-08T00:21:20;13.18;;;10.05;;
51636;SDS011;37713;53.254;6.460;2023-09-08T00:23:46;16.20;;;10.50;;
51636;SDS011;37713;53.254;6.460;2023-09-08T00:26:12;14.50;;;9.63;;
51636;SDS011;37713;53.254;6.460;2023-09-08T00:28:37;14.25;;;9.85;;
51636;SDS011;37713;53.254;6.460;2023-09-08T00:31:03;14.68;;;10.35;;
51636;SDS011;37713;53.254;6.460;2023-09-08T00:33:30;15.70;;;10.13;;
51636;SDS011;37713;53.254;6.460;2023-09-08T00:35:55;15.70;;;10.40;;
51636;SDS011;37713;53.254;6.460;2023-09-08T00:38:22;12.85;;;10.05;;
51636;SDS011;37713;53.254;6.460;2023-09-08T00:40:48;13.98;;;10.50;;
51636;SDS011;37713;53.254;6.460;2023-09-08T00:43:14;13.68;;;10.20;;
51636;SDS011;37713;53.254;6.460;2023-09-08T00:45:41;15.38;;;10.95;;
51636;SDS011;37713;53.254;6.460;2023-09-08T00:48:08;13.85;;;10.48;;
51636;SDS011;37713;53.254;6.460;2023-09-08T00:50:36;14.48;;;10.52;;
51636;SDS011;37713;53.254;6.460;2023-09-08T00:53:06;15.77;;;10.32;;
51636;SDS011;37713;53.254;6.460;2023-09-08T00:55:32;13.27;;;9.68;;
51636;SDS011;37713;53.254;6.460;2023-09-08T00:57:59;14.35;;;10.25;;
51636;SDS011;37713;53.254;6.460;2023-09-08T01:00:25;13.27;;;9.88;;
51636;SDS011;37713;53.254;6.460;2023-09-08T01:02:51;14.18;;;10.50;;
51636;SDS011;37713;53.254;6.460;2023-09-08T01:05:17;14.93;;;10.15;;
51636;SDS011;37713;53.254;6.460;2023-09-08T01:07:44;14.70;;;9.75;;
51636;SDS011;37713;53.254;6.460;2023-09-08T01:10:11;13.80;;;10.45;;
51636;SDS011;37713;53.254;6.460;2023-09-08T01:12:37;17.60;;;10.48;;
51636;SDS011;37713;53.254;6.460;2023-09-08T01:15:04;16.30;;;10.48;;
51636;SDS011;37713;53.254;6.460;2023-09-08T01:17:30;14.07;;;10.50;;
51636;SDS011;37713;53.254;6.460;2023-09-08T01:19:56;14.70;;;11.10;;
51636;SDS011;37713;53.254;6.460;2023-09-08T01:25:32;13.55;;;10.55;;
51636;SDS011;37713;53.254;6.460;2023-09-08T01:28:04;14.25;;;10.32;;
51636;SDS011;37713;53.254;6.460;2023-09-08T01:30:31;13.18;;;10.52;;
51636;SDS011;37713;53.254;6.460;2023-09-08T01:32:58;15.25;;;10.77;;
51636;SDS011;37713;53.254;6.460;2023-09-08T01:35:25;15.75;;;10.48;;
51636;SDS011;37713;53.254;6.460;2023-09-08T01:37:51;14.88;;;11.00;;
51636;SDS011;37713;53.254;6.460;2023-09-08T01:40:17;15.00;;;10.68;;
51636;SDS011;37713;53.254;6.460;2023-09-08T01:42:44;15.63;;;10.18;;
51636;SDS011;37713;53.254;6.460;2023-09-08T01:45:10;16.40;;;10.45;;
51636;SDS011;37713;53.254;6.460;2023-09-08T01:47:36;17.80;;;10.40;;
51636;SDS011;37713;53.254;6.460;2023-09-08T01:50:03;15.13;;;11.20;;
51636;SDS011;37713;53.254;6.460;2023-09-08T01:52:29;16.35;;;10.90;;
51636;SDS011;37713;53.254;6.460;2023-09-08T01:54:55;14.93;;;10.40;;
51636;SDS011;37713;53.254;6.460;2023-09-08T01:57:20;15.40;;;10.98;;
51636;SDS011;37713;53.254;6.460;2023-09-08T01:59:46;14.60;;;10.80;;
51636;SDS011;37713;53.254;6.460;2023-09-08T02:02:13;15.95;;;10.93;;
51636;SDS011;37713;53.254;6.460;2023-09-08T02:04:39;14.10;;;11.18;;
51636;SDS011;37713;53.254;6.460;2023-09-08T02:07:05;17.42;;;11.32;;
51636;SDS011;37713;53.254;6.460;2023-09-08T02:09:34;14.73;;;10.80;;
51636;SDS011;37713;53.254;6.460;2023-09-08T02:12:01;15.98;;;10.93;;
51636;SDS011;37713;53.254;6.460;2023-09-08T02:14:28;15.18;;;11.13;;
51636;SDS011;37713;53.254;6.460;2023-09-08T02:16:54;13.63;;;10.88;;
51636;SDS011;37713;53.254;6.460;2023-09-08T02:19:21;13.57;;;10.75;;
51636;SDS011;37713;53.254;6.460;2023-09-08T02:21:47;14.75;;;10.70;;
51636;SDS011;37713;53.254;6.460;2023-09-08T02:24:12;16.05;;;11.73;;
51636;SDS011;37713;53.254;6.460;2023-09-08T02:26:38;15.43;;;11.77;;
51636;SDS011;37713;53.254;6.460;2023-09-08T02:29:04;14.77;;;11.57;;
51636;SDS011;37713;53.254;6.460;2023-09-08T02:31:30;15.68;;;12.23;;
51636;SDS011;37713;53.254;6.460;2023-09-08T02:33:56;16.00;;;11.43;;
51636;SDS011;37713;53.254;6.460;2023-09-08T02:36:22;15.07;;;11.40;;
51636;SDS011;37713;53.254;6.460;2023-09-08T02:38:54;15.45;;;11.27;;
51636;SDS011;37713;53.254;6.460;2023-09-08T02:41:21;18.42;;;11.13;;
51636;SDS011;37713;53.254;6.460;2023-09-08T02:43:48;15.85;;;10.93;;
51636;SDS011;37713;53.254;6.460;2023-09-08T02:46:14;14.55;;;10.85;;
51636;SDS011;37713;53.254;6.460;2023-09-08T02:48:40;15.98;;;11.02;;
51636;SDS011;37713;53.254;6.460;2023-09-08T02:51:06;14.50;;;10.90;;
51636;SDS011;37713;53.254;6.460;2023-09-08T02:53:32;15.27;;;11.20;;
51636;SDS011;37713;53.254;6.460;2023-09-08T02:55:58;15.82;;;11.38;;
51636;SDS011;37713;53.254;6.460;2023-09-08T02:58:25;15.65;;;11.05;;
51636;SDS011;37713;53.254;6.460;2023-09-08T03:00:51;15.82;;;11.23;;
51636;SDS011;37713;53.254;6.460;2023-09-08T03:03:18;14.73;;;11.23;;
51636;SDS011;37713;53.254;6.460;2023-09-08T03:05:44;15.75;;;11.25;;
51636;SDS011;37713;53.254;6.460;2023-09-08T03:08:10;15.43;;;10.85;;
51636;SDS011;37713;53.254;6.460;2023-09-08T03:10:36;14.90;;;11.77;;
51636;SDS011;37713;53.254;6.460;2023-09-08T03:13:02;15.25;;;10.85;;
51636;SDS011;37713;53.254;6.460;2023-09-08T03:15:29;13.75;;;10.57;;
51636;SDS011;37713;53.254;6.460;2023-09-08T03:17:55;14.90;;;11.93;;
51636;SDS011;37713;53.254;6.460;2023-09-08T03:20:21;14.25;;;11.35;;
51636;SDS011;37713;53.254;6.460;2023-09-08T03:22:47;15.50;;;11.85;;
51636;SDS011;37713;53.254;6.460;2023-09-08T03:25:13;15.15;;;11.70;;
51636;SDS011;37713;53.254;6.460;2023-09-08T03:27:39;17.17;;;11.82;;
51636;SDS011;37713;53.254;6.460;2023-09-08T03:30:06;16.65;;;12.25;;
51636;SDS011;37713;53.254;6.460;2023-09-08T03:32:33;16.70;;;12.10;;
51636;SDS011;37713;53.254;6.460;2023-09-08T03:34:59;15.55;;;11.80;;
51636;SDS011;37713;53.254;6.460;2023-09-08T03:37:25;17.75;;;11.95;;
51636;SDS011;37713;53.254;6.460;2023-09-08T03:39:54;15.47;;;11.73;;
51636;SDS011;37713;53.254;6.460;2023-09-08T03:42:19;15.00;;;12.02;;
51636;SDS011;37713;53.254;6.460;2023-09-08T03:44:45;16.00;;;11.48;;
51636;SDS011;37713;53.254;6.460;2023-09-08T03:47:11;18.73;;;11.95;;
51636;SDS011;37713;53.254;6.460;2023-09-08T03:49:37;16.25;;;11.70;;
51636;SDS011;37713;53.254;6.460;2023-09-08T03:52:02;15.13;;;11.30;;
51636;SDS011;37713;53.254;6.460;2023-09-08T03:54:29;14.50;;;11.60;;
51636;SDS011;37713;53.254;6.460;2023-09-08T03:56:55;16.45;;;11.70;;
51636;SDS011;37713;53.254;6.460;2023-09-08T03:59:21;19.08;;;12.20;;
51636;SDS011;37713;53.254;6.460;2023-09-08T04:01:47;16.52;;;12.35;;
51636;SDS011;37713;53.254;6.460;2023-09-08T04:04:13;17.05;;;12.25;;
51636;SDS011;37713;53.254;6.460;2023-09-08T04:06:38;16.67;;;11.88;;
51636;SDS011;37713;53.254;6.460;2023-09-08T04:09:04;14.70;;;11.10;;
51636;SDS011;37713;53.254;6.460;2023-09-08T04:11:30;15.82;;;12.10;;
51636;SDS011;37713;53.254;6.460;2023-09-08T04:13:56;17.77;;;12.30;;
51636;SDS011;37713;53.254;6.460;2023-09-08T04:16:22;18.63;;;11.60;;
51636;SDS011;37713;53.254;6.460;2023-09-08T04:18:48;17.90;;;12.15;;
51636;SDS011;37713;53.254;6.460;2023-09-08T04:21:13;16.90;;;12.07;;
51636;SDS011;37713;53.254;6.460;2023-09-08T04:23:39;19.20;;;12.30;;
51636;SDS011;37713;53.254;6.460;2023-09-08T04:26:05;14.48;;;11.93;;
51636;SDS011;37713;53.254;6.460;2023-09-08T04:28:31;15.68;;;12.00;;
51636;SDS011;37713;53.254;6.460;2023-09-08T04:30:57;17.10;;;12.40;;
51636;SDS011;37713;53.254;6.460;2023-09-08T04:33:23;18.55;;;12.48;;
51636;SDS011;37713;53.254;6.460;2023-09-08T04:35:49;16.50;;;11.63;;
51636;SDS011;37713;53.254;6.460;2023-09-08T04:38:15;15.18;;;11.77;;
51636;SDS011;37713;53.254;6.460;2023-09-08T04:40:40;15.70;;;12.02;;
51636;SDS011;37713;53.254;6.460;2023-09-08T04:43:09;14.17;;;12.00;;
51636;SDS011;37713;53.254;6.460;2023-09-08T04:45:35;16.30;;;12.55;;
51636;SDS011;37713;53.254;6.460;2023-09-08T04:48:01;17.05;;;12.30;;
51636;SDS011;37713;53.254;6.460;2023-09-08T04:50:27;14.70;;;11.02;;
51636;SDS011;37713;53.254;6.460;2023-09-08T04:52:52;17.00;;;12.25;;
51636;SDS011;37713;53.254;6.460;2023-09-08T04:55:18;16.00;;;11.93;;
51636;SDS011;37713;53.254;6.460;2023-09-08T04:57:44;17.48;;;11.38;;
51636;SDS011;37713;53.254;6.460;2023-09-08T05:00:10;16.63;;;12.18;;
51636;SDS011;37713;53.254;6.460;2023-09-08T05:02:37;16.75;;;11.30;;
51636;SDS011;37713;53.254;6.460;2023-09-08T05:05:03;18.35;;;12.10;;
51636;SDS011;37713;53.254;6.460;2023-09-08T05:07:29;17.20;;;11.95;;
51636;SDS011;37713;53.254;6.460;2023-09-08T05:09:55;16.77;;;12.07;;
51636;SDS011;37713;53.254;6.460;2023-09-08T05:12:21;15.43;;;11.52;;
51636;SDS011;37713;53.254;6.460;2023-09-08T05:14:46;14.98;;;11.32;;
51636;SDS011;37713;53.254;6.460;2023-09-08T05:17:12;14.77;;;11.40;;
51636;SDS011;37713;53.254;6.460;2023-09-08T05:19:38;15.60;;;11.90;;
51636;SDS011;37713;53.254;6.460;2023-09-08T05:22:04;14.73;;;11.18;;
51636;SDS011;37713;53.254;6.460;2023-09-08T05:24:32;15.73;;;11.77;;
51636;SDS011;37713;53.254;6.460;2023-09-08T05:26:58;16.98;;;12.10;;
51636;SDS011;37713;53.254;6.460;2023-09-08T05:29:24;16.35;;;12.18;;
51636;SDS011;37713;53.254;6.460;2023-09-08T05:31:49;17.08;;;12.30;;
51636;SDS011;37713;53.254;6.460;2023-09-08T05:34:16;17.08;;;12.65;;
51636;SDS011;37713;53.254;6.460;2023-09-08T05:36:42;17.50;;;12.23;;
51636;SDS011;37713;53.254;6.460;2023-09-08T05:39:08;16.52;;;12.50;;
51636;SDS011;37713;53.254;6.460;2023-09-08T05:41:35;18.00;;;11.45;;
51636;SDS011;37713;53.254;6.460;2023-09-08T05:44:01;15.48;;;11.82;;
51636;SDS011;37713;53.254;6.460;2023-09-08T05:46:27;17.73;;;11.88;;
51636;SDS011;37713;53.254;6.460;2023-09-08T05:48:53;16.88;;;12.05;;
51636;SDS011;37713;53.254;6.460;2023-09-08T05:51:18;17.08;;;11.43;;
51636;SDS011;37713;53.254;6.460;2023-09-08T05:53:44;18.98;;;12.20;;
51636;SDS011;37713;53.254;6.460;2023-09-08T05:56:10;16.88;;;11.68;;
51636;SDS011;37713;53.254;6.460;2023-09-08T05:58:36;18.13;;;12.02;;
51636;SDS011;37713;53.254;6.460;2023-09-08T06:01:02;16.98;;;11.93;;
51636;SDS011;37713;53.254;6.460;2023-09-08T06:03:29;18.52;;;11.98;;
51636;SDS011;37713;53.254;6.460;2023-09-08T06:05:55;14.98;;;11.25;;
51636;SDS011;37713;53.254;6.460;2023-09-08T06:08:22;15.00;;;11.30;;
51636;SDS011;37713;53.254;6.460;2023-09-08T06:10:48;17.80;;;11.45;;
51636;SDS011;37713;53.254;6.460;2023-09-08T06:13:14;16.23;;;12.05;;
51636;SDS011;37713;53.254;6.460;2023-09-08T06:15:39;15.98;;;11.93;;
51636;SDS011;37713;53.254;6.460;2023-09-08T06:18:05;15.25;;;10.80;;
51636;SDS011;37713;53.254;6.460;2023-09-08T06:20:31;16.92;;;10.68;;
51636;SDS011;37713;53.254;6.460;2023-09-08T06:22:57;15.27;;;11.45;;
51636;SDS011;37713;53.254;6.460;2023-09-08T06:25:23;14.27;;;11.15;;
51636;SDS011;37713;53.254;6.460;2023-09-08T06:27:48;14.88;;;11.23;;
51636;SDS011;37713;53.254;6.460;2023-09-08T06:30:14;15.45;;;11.07;;
51636;SDS011;37713;53.254;6.460;2023-09-08T06:32:41;15.82;;;10.65;;
51636;SDS011;37713;53.254;6.460;2023-09-08T06:35:07;15.88;;;11.13;;
51636;SDS011;37713;53.254;6.460;2023-09-08T06:37:37;15.77;;;11.15;;
51636;SDS011;37713;53.254;6.460;2023-09-08T06:40:04;15.82;;;11.35;;
51636;SDS011;37713;53.254;6.460;2023-09-08T06:42:31;14.40;;;10.95;;
51636;SDS011;37713;53.254;6.460;2023-09-08T06:44:57;15.80;;;11.18;;
51636;SDS011;37713;53.254;6.460;2023-09-08T06:47:23;15.82;;;11.07;;
51636;SDS011;37713;53.254;6.460;2023-09-08T06:49:49;14.90;;;11.20;;
51636;SDS011;37713;53.254;6.460;2023-09-08T06:52:16;16.40;;;11.20;;
51636;SDS011;37713;53.254;6.460;2023-09-08T06:54:42;16.70;;;11.32;;
51636;SDS011;37713;53.254;6.460;2023-09-08T06:57:11;14.73;;;11.27;;
51636;SDS011;37713;53.254;6.460;2023-09-08T06:59:37;16.98;;;11.07;;
51636;SDS011;37713;53.254;6.460;2023-09-08T07:02:03;12.70;;;10.18;;
51636;SDS011;37713;53.254;6.460;2023-09-08T07:04:29;13.38;;;10.02;;
51636;SDS011;37713;53.254;6.460;2023-09-08T07:06:55;14.73;;;9.77;;
51636;SDS011;37713;53.254;6.460;2023-09-08T07:09:21;13.63;;;10.27;;
51636;SDS011;37713;53.254;6.460;2023-09-08T07:11:47;15.15;;;10.20;;
51636;SDS011;37713;53.254;6.460;2023-09-08T07:14:13;14.27;;;10.32;;
51636;SDS011;37713;53.254;6.460;2023-09-08T07:16:38;14.57;;;9.75;;
51636;SDS011;37713;53.254;6.460;2023-09-08T07:19:04;12.45;;;9.23;;
51636;SDS011;37713;53.254;6.460;2023-09-08T07:21:30;11.93;;;9.00;;
51636;SDS011;37713;53.254;6.460;2023-09-08T07:23:56;13.30;;;9.13;;
51636;SDS011;37713;53.254;6.460;2023-09-08T07:26:23;11.38;;;8.90;;
51636;SDS011;37713;53.254;6.460;2023-09-08T07:28:49;11.18;;;8.45;;
51636;SDS011;37713;53.254;6.460;2023-09-08T07:31:15;11.43;;;8.05;;
51636;SDS011;37713;53.254;6.460;2023-09-08T07:33:41;11.25;;;7.90;;
51636;SDS011;37713;53.254;6.460;2023-09-08T07:36:07;13.32;;;8.02;;
51636;SDS011;37713;53.254;6.460;2023-09-08T07:38:34;12.15;;;8.43;;
51636;SDS011;37713;53.254;6.460;2023-09-08T07:41:03;10.25;;;7.80;;
51636;SDS011;37713;53.254;6.460;2023-09-08T07:43:29;10.93;;;8.53;;
51636;SDS011;37713;53.254;6.460;2023-09-08T07:45:55;13.15;;;9.02;;
51636;SDS011;37713;53.254;6.460;2023-09-08T07:48:20;13.90;;;8.65;;
51636;SDS011;37713;53.254;6.460;2023-09-08T07:50:46;12.52;;;8.95;;
51636;SDS011;37713;53.254;6.460;2023-09-08T07:53:12;11.18;;;8.18;;
51636;SDS011;37713;53.254;6.460;2023-09-08T07:55:38;12.18;;;8.65;;
51636;SDS011;37713;53.254;6.460;2023-09-08T07:58:03;13.60;;;8.68;;
51636;SDS011;37713;53.254;6.460;2023-09-08T08:00:30;13.73;;;8.85;;
51636;SDS011;37713;53.254;6.460;2023-09-08T08:02:56;12.18;;;8.85;;
51636;SDS011;37713;53.254;6.460;2023-09-08T08:05:23;11.50;;;8.43;;
51636;SDS011;37713;53.254;6.460;2023-09-08T08:07:50;10.80;;;8.70;;
51636;SDS011;37713;53.254;6.460;2023-09-08T08:10:16;14.32;;;8.88;;
51636;SDS011;37713;53.254;6.460;2023-09-08T08:12:42;12.50;;;8.32;;
51636;SDS011;37713;53.254;6.460;2023-09-08T08:15:08;11.57;;;8.40;;
51636;SDS011;37713;53.254;6.460;2023-09-08T08:17:38;12.15;;;8.20;;
51636;SDS011;37713;53.254;6.460;2023-09-08T08:20:05;9.52;;;7.35;;
51636;SDS011;37713;53.254;6.460;2023-09-08T08:22:36;15.65;;;8.38;;
51636;SDS011;37713;53.254;6.460;2023-09-08T08:25:02;10.32;;;7.97;;
51636;SDS011;37713;53.254;6.460;2023-09-08T08:27:28;12.93;;;8.43;;
51636;SDS011;37713;53.254;6.460;2023-09-08T08:29:56;11.15;;;7.60;;
51636;SDS011;37713;53.254;6.460;2023-09-08T08:32:28;12.82;;;7.80;;
51636;SDS011;37713;53.254;6.460;2023-09-08T08:34:55;10.85;;;7.70;;
51636;SDS011;37713;53.254;6.460;2023-09-08T08:37:22;14.23;;;7.43;;
51636;SDS011;37713;53.254;6.460;2023-09-08T08:39:48;8.35;;;6.43;;
51636;SDS011;37713;53.254;6.460;2023-09-08T08:42:14;14.20;;;7.43;;
51636;SDS011;37713;53.254;6.460;2023-09-08T08:44:40;11.38;;;7.07;;
51636;SDS011;37713;53.254;6.460;2023-09-08T08:47:07;10.52;;;6.80;;
51636;SDS011;37713;53.254;6.460;2023-09-08T08:49:34;13.80;;;7.00;;
51636;SDS011;37713;53.254;6.460;2023-09-08T08:52:01;10.50;;;6.65;;
51636;SDS011;37713;53.254;6.460;2023-09-08T08:54:33;10.43;;;7.03;;
51636;SDS011;37713;53.254;6.460;2023-09-08T08:57:02;12.77;;;6.93;;
51636;SDS011;37713;53.254;6.460;2023-09-08T08:59:29;9.95;;;6.68;;
51636;SDS011;37713;53.254;6.460;2023-09-08T09:01:55;11.57;;;7.03;;
51636;SDS011;37713;53.254;6.460;2023-09-08T09:04:23;10.65;;;6.65;;
51636;SDS011;37713;53.254;6.460;2023-09-08T09:06:50;10.35;;;6.75;;
51636;SDS011;37713;53.254;6.460;2023-09-08T09:09:17;11.25;;;6.85;;
51636;SDS011;37713;53.254;6.460;2023-09-08T09:11:44;10.10;;;7.10;;
51636;SDS011;37713;53.254;6.460;2023-09-08T09:14:10;10.23;;;7.03;;
51636;SDS011;37713;53.254;6.460;2023-09-08T09:16:42;9.43;;;6.47;;
51636;SDS011;37713;53.254;6.460;2023-09-08T09:19:08;10.70;;;6.70;;
51636;SDS011;37713;53.254;6.460;2023-09-08T09:21:41;8.93;;;6.13;;
51636;SDS011;37713;53.254;6.460;2023-09-08T09:24:15;11.35;;;7.25;;
51636;SDS011;37713;53.254;6.460;2023-09-08T09:27:04;10.02;;;6.65;;
51636;SDS011;37713;53.254;6.460;2023-09-08T09:29:30;8.88;;;6.10;;
51636;SDS011;37713;53.254;6.460;2023-09-08T09:31:57;10.18;;;6.32;;
51636;SDS011;37713;53.254;6.460;2023-09-08T09:34:34;9.15;;;6.20;;
51636;SDS011;37713;53.254;6.460;2023-09-08T09:37:00;10.93;;;6.32;;
51636;SDS011;37713;53.254;6.460;2023-09-08T09:39:26;10.77;;;6.40;;
51636;SDS011;37713;53.254;6.460;2023-09-08T09:41:56;9.80;;;6.05;;
51636;SDS011;37713;53.254;6.460;2023-09-08T09:44:22;10.07;;;6.60;;
51636;SDS011;37713;53.254;6.460;2023-09-08T09:46:51;9.98;;;5.97;;
51636;SDS011;37713;53.254;6.460;2023-09-08T09:49:18;9.20;;;6.28;;
51636;SDS011;37713;53.254;6.460;2023-09-08T09:51:45;10.40;;;6.00;;
51636;SDS011;37713;53.254;6.460;2023-09-08T09:54:16;8.00;;;5.72;;
51636;SDS011;37713;53.254;6.460;2023-09-08T09:56:42;12.35;;;6.50;;
51636;SDS011;37713;53.254;6.460;2023-09-08T09:59:09;9.20;;;5.90;;
51636;SDS011;37713;53.254;6.460;2023-09-08T10:01:37;16.57;;;6.97;;
51636;SDS011;37713;53.254;6.460;2023-09-08T10:04:04;9.07;;;5.88;;
51636;SDS011;37713;53.254;6.460;2023-09-08T10:06:32;7.80;;;5.93;;
51636;SDS011;37713;53.254;6.460;2023-09-08T10:09:00;10.98;;;6.20;;
51636;SDS011;37713;53.254;6.460;2023-09-08T10:11:33;9.18;;;6.38;;
51636;SDS011;37713;53.254;6.460;2023-09-08T10:14:03;9.13;;;6.07;;
51636;SDS011;37713;53.254;6.460;2023-09-08T10:16:30;7.25;;;5.68;;
51636;SDS011;37713;53.254;6.460;2023-09-08T10:18:59;10.98;;;5.88;;
51636;SDS011;37713;53.254;6.460;2023-09-08T10:21:28;8.30;;;6.03;;
51636;SDS011;37713;53.254;6.460;2023-09-08T10:24:06;9.68;;;5.70;;
51636;SDS011;37713;53.254;6.460;2023-09-08T10:26:40;8.32;;;5.22;;
51636;SDS011;37713;53.254;6.460;2023-09-08T10:29:10;9.68;;;5.70;;
51636;SDS011;37713;53.254;6.460;2023-09-08T10:31:37;8.15;;;5.70;;
51636;SDS011;37713;53.254;6.460;2023-09-08T10:34:03;8.30;;;5.90;;
51636;SDS011;37713;53.254;6.460;2023-09-08T10:36:30;8.18;;;5.38;;
51636;SDS011;37713;53.254;6.460;2023-09-08T10:39:22;9.25;;;5.50;;
51636;SDS011;37713;53.254;6.460;2023-09-08T10:47:13;9.65;;;5.43;;
51636;SDS011;37713;53.254;6.460;2023-09-08T10:49:39;8.85;;;5.30;;
51636;SDS011;37713;53.254;6.460;2023-09-08T10:52:09;8.85;;;5.10;;
51636;SDS011;37713;53.254;6.460;2023-09-08T10:54:43;8.80;;;5.10;;
51636;SDS011;37713;53.254;6.460;2023-09-08T10:57:14;8.18;;;5.40;;
51636;SDS011;37713;53.254;6.460;2023-09-08T10:59:45;7.05;;;4.95;;
51636;SDS011;37713;53.254;6.460;2023-09-08T11:05:07;8.43;;;5.00;;
51636;SDS011;37713;53.254;6.460;2023-09-08T11:07:38;8.40;;;5.15;;
51636;SDS011;37713;53.254;6.460;2023-09-08T11:10:06;9.48;;;4.97;;
51636;SDS011;37713;53.254;6.460;2023-09-08T11:12:33;8.70;;;5.10;;
51636;SDS011;37713;53.254;6.460;2023-09-08T11:14:59;9.98;;;5.45;;
51636;SDS011;37713;53.254;6.460;2023-09-08T11:17:29;9.98;;;5.05;;
51636;SDS011;37713;53.254;6.460;2023-09-08T11:19:55;8.07;;;5.00;;
51636;SDS011;37713;53.254;6.460;2023-09-08T11:22:25;9.50;;;5.50;;
51636;SDS011;37713;53.254;6.460;2023-09-08T11:24:51;10.93;;;5.43;;
51636;SDS011;37713;53.254;6.460;2023-09-08T11:27:17;8.25;;;5.22;;
51636;SDS011;37713;53.254;6.460;2023-09-08T11:29:44;8.48;;;4.88;;
51636;SDS011;37713;53.254;6.460;2023-09-08T11:32:10;9.50;;;5.47;;
51636;SDS011;37713;53.254;6.460;2023-09-08T11:34:37;9.50;;;4.68;;
51636;SDS011;37713;53.254;6.460;2023-09-08T11:37:13;7.47;;;4.60;;
51636;SDS011;37713;53.254;6.460;2023-09-08T11:39:41;7.60;;;4.68;;
51636;SDS011;37713;53.254;6.460;2023-09-08T11:42:08;12.05;;;5.43;;
51636;SDS011;37713;53.254;6.460;2023-09-08T11:44:36;9.45;;;5.25;;
51636;SDS011;37713;53.254;6.460;2023-09-08T11:47:03;10.25;;;5.22;;
51636;SDS011;37713;53.254;6.460;2023-09-08T11:49:33;10.25;;;4.80;;
51636;SDS011;37713;53.254;6.460;2023-09-08T11:52:00;7.57;;;5.00;;
51636;SDS011;37713;53.254;6.460;2023-09-08T11:54:25;6.57;;;4.78;;
51636;SDS011;37713;53.254;6.460;2023-09-08T11:56:52;7.93;;;4.90;;
51636;SDS011;37713;53.254;6.460;2023-09-08T11:59:18;6.80;;;4.88;;
51636;SDS011;37713;53.254;6.460;2023-09-08T12:01:43;8.18;;;5.25;;
51636;SDS011;37713;53.254;6.460;2023-09-08T12:04:16;9.18;;;5.35;;
51636;SDS011;37713;53.254;6.460;2023-09-08T12:06:44;7.72;;;5.03;;
51636;SDS011;37713;53.254;6.460;2023-09-08T12:09:10;12.43;;;5.18;;
51636;SDS011;37713;53.254;6.460;2023-09-08T12:11:36;7.88;;;4.68;;
51636;SDS011;37713;53.254;6.460;2023-09-08T12:14:07;8.45;;;5.25;;
51636;SDS011;37713;53.254;6.460;2023-09-08T12:16:34;11.23;;;5.18;;
51636;SDS011;37713;53.254;6.460;2023-09-08T12:19:00;8.63;;;4.93;;
51636;SDS011;37713;53.254;6.460;2023-09-08T12:21:26;7.97;;;4.72;;
51636;SDS011;37713;53.254;6.460;2023-09-08T12:23:53;9.55;;;5.10;;
51636;SDS011;37713;53.254;6.460;2023-09-08T12:26:19;7.82;;;5.15;;
51636;SDS011;37713;53.254;6.460;2023-09-08T12:28:45;8.55;;;5.20;;
51636;SDS011;37713;53.254;6.460;2023-09-08T12:31:15;7.57;;;4.93;;
51636;SDS011;37713;53.254;6.460;2023-09-08T12:33:42;9.15;;;4.95;;
51636;SDS011;37713;53.254;6.460;2023-09-08T12:36:12;6.65;;;4.90;;
51636;SDS011;37713;53.254;6.460;2023-09-08T12:38:51;8.02;;;4.95;;
51636;SDS011;37713;53.254;6.460;2023-09-08T12:41:18;6.85;;;4.40;;
51636;SDS011;37713;53.254;6.460;2023-09-08T12:43:44;8.38;;;4.65;;
51636;SDS011;37713;53.254;6.460;2023-09-08T12:46:11;8.50;;;4.65;;
51636;SDS011;37713;53.254;6.460;2023-09-08T12:48:37;9.45;;;4.82;;
51636;SDS011;37713;53.254;6.460;2023-09-08T12:51:03;7.50;;;4.60;;
51636;SDS011;37713;53.254;6.460;2023-09-08T12:53:35;6.38;;;4.60;;
51636;SDS011;37713;53.254;6.460;2023-09-08T12:56:01;8.52;;;4.90;;
51636;SDS011;37713;53.254;6.460;2023-09-08T12:58:27;7.05;;;4.60;;
51636;SDS011;37713;53.254;6.460;2023-09-08T13:00:53;9.85;;;4.88;;
51636;SDS011;37713;53.254;6.460;2023-09-08T13:03:19;8.75;;;4.90;;
51636;SDS011;37713;53.254;6.460;2023-09-08T13:05:45;8.40;;;4.63;;
51636;SDS011;37713;53.254;6.460;2023-09-08T13:08:11;7.20;;;4.60;;
51636;SDS011;37713;53.254;6.460;2023-09-08T13:10:40;8.02;;;4.38;;
51636;SDS011;37713;53.254;6.460;2023-09-08T13:13:06;8.20;;;4.75;;
51636;SDS011;37713;53.254;6.460;2023-09-08T13:15:32;7.22;;;4.57;;
51636;SDS011;37713;53.254;6.460;2023-09-08T13:17:57;7.32;;;4.22;;
51636;SDS011;37713;53.254;6.460;2023-09-08T13:20:23;9.68;;;4.57;;
51636;SDS011;37713;53.254;6.460;2023-09-08T13:22:49;9.73;;;4.78;;
51636;SDS011;37713;53.254;6.460;2023-09-08T13:25:15;8.18;;;4.00;;
51636;SDS011;37713;53.254;6.460;2023-09-08T13:27:41;6.45;;;4.15;;
51636;SDS011;37713;53.254;6.460;2023-09-08T13:30:10;7.97;;;4.25;;
51636;SDS011;37713;53.254;6.460;2023-09-08T13:32:37;8.90;;;4.47;;
51636;SDS011;37713;53.254;6.460;2023-09-08T13:35:03;12.32;;;4.30;;
51636;SDS011;37713;53.254;6.460;2023-09-08T13:37:30;8.35;;;4.93;;
51636;SDS011;37713;53.254;6.460;2023-09-08T13:39:56;7.15;;;4.40;;
51636;SDS011;37713;53.254;6.460;2023-09-08T13:42:22;8.45;;;4.53;;
51636;SDS011;37713;53.254;6.460;2023-09-08T13:44:48;6.28;;;4.10;;
51636;SDS011;37713;53.254;6.460;2023-09-08T13:47:14;7.53;;;4.43;;
51636;SDS011;37713;53.254;6.460;2023-09-08T13:49:40;6.93;;;4.28;;
51636;SDS011;37713;53.254;6.460;2023-09-08T13:52:05;7.32;;;4.32;;
51636;SDS011;37713;53.254;6.460;2023-09-08T13:54:32;8.02;;;4.40;;
51636;SDS011;37713;53.254;6.460;2023-09-08T13:56:59;10.02;;;4.00;;
51636;SDS011;37713;53.254;6.460;2023-09-08T13:59:29;12.55;;;4.40;;
51636;SDS011;37713;53.254;6.460;2023-09-08T14:01:55;9.85;;;4.30;;
51636;SDS011;37713;53.254;6.460;2023-09-08T14:04:26;6.85;;;4.07;;
51636;SDS011;37713;53.254;6.460;2023-09-08T14:06:52;7.93;;;4.50;;
51636;SDS011;37713;53.254;6.460;2023-09-08T14:09:18;8.02;;;4.03;;
51636;SDS011;37713;53.254;6.460;2023-09-08T14:11:44;7.13;;;4.53;;
51636;SDS011;37713;53.254;6.460;2023-09-08T14:14:10;8.65;;;4.90;;
51636;SDS011;37713;53.254;6.460;2023-09-08T14:16:36;9.15;;;4.47;;
51636;SDS011;37713;53.254;6.460;2023-09-08T14:19:01;8.65;;;4.70;;
51636;SDS011;37713;53.254;6.460;2023-09-08T14:21:27;6.63;;;4.55;;
51636;SDS011;37713;53.254;6.460;2023-09-08T14:23:53;6.75;;;4.15;;
51636;SDS011;37713;53.254;6.460;2023-09-08T14:26:19;7.80;;;3.95;;
51636;SDS011;37713;53.254;6.460;2023-09-08T14:28:45;7.38;;;4.25;;
51636;SDS011;37713;53.254;6.460;2023-09-08T14:31:11;7.10;;;4.28;;
51636;SDS011;37713;53.254;6.460;2023-09-08T14:33:38;6.20;;;4.00;;
51636;SDS011;37713;53.254;6.460;2023-09-08T14:36:04;7.80;;;4.05;;
51636;SDS011;37713;53.254;6.460;2023-09-08T14:38:30;8.95;;;4.18;;
51636;SDS011;37713;53.254;6.460;2023-09-08T14:40:57;6.65;;;4.43;;
51636;SDS011;37713;53.254;6.460;2023-09-08T14:43:24;9.05;;;4.63;;